createdAt,value
2023-05-05T00:04:25.642Z,4.73
2023-05-05T00:09:29.867Z,4.30
2023-05-05T00:14:34.642Z,4.40
2023-05-05T00:19:39.674Z,5.17
2023-05-05T00:24:43.087Z,4.80
2023-05-05T00:29:46.751Z,5.00
2023-05-05T00:34:52.063Z,4.90
2023-05-05T00:39:55.664Z,5.97
2023-05-05T00:44:59.314Z,4.80
2023-05-05T00:50:04.667Z,5.00
2023-05-05T00:55:08.556Z,5.77
2023-05-05T01:00:12.617Z,4.60
2023-05-05T01:05:18.353Z,4.47
2023-05-05T01:10:26.652Z,4.80
2023-05-05T01:15:33.492Z,5.00
2023-05-05T01:20:42.342Z,5.27
2023-05-05T01:26:02.810Z,4.93
2023-05-05T01:31:10.736Z,4.77
2023-05-05T01:36:22.908Z,5.20
2023-05-05T01:41:28.100Z,4.60
2023-05-05T01:46:32.175Z,5.83
2023-05-05T01:51:38.276Z,5.43
2023-05-05T01:56:42.275Z,6.03
2023-05-05T02:01:47.379Z,5.27
2023-05-05T02:06:53.421Z,5.27
2023-05-05T02:11:58.561Z,5.20
2023-05-05T02:17:03.518Z,5.77
2023-05-05T02:22:08.503Z,5.87
2023-05-05T02:27:12.461Z,5.37
2023-05-05T02:32:18.372Z,3.80
2023-05-05T02:37:25.106Z,4.23
2023-05-05T02:42:35.139Z,5.17
2023-05-05T02:47:40.248Z,3.93
2023-05-05T02:52:46.088Z,3.63
2023-05-05T02:57:52.928Z,3.90
2023-05-05T03:03:03.481Z,3.40
2023-05-05T03:08:11.466Z,3.87
2023-05-05T03:13:18.114Z,4.43
2023-05-05T03:18:24.351Z,3.27
2023-05-05T03:23:36.131Z,3.10
2023-05-05T03:28:42.899Z,3.33
2023-05-05T03:33:55.640Z,3.50
2023-05-05T03:39:03.970Z,4.40
2023-05-05T03:44:10.726Z,5.10
2023-05-05T03:49:14.511Z,5.17
2023-05-05T03:54:21.043Z,3.60
2023-05-05T03:59:24.566Z,4.10
2023-05-05T04:04:29.117Z,3.47
2023-05-05T04:09:34.311Z,3.43
2023-05-05T04:14:37.810Z,3.77
2023-05-05T04:19:42.602Z,3.50
2023-05-05T04:24:49.805Z,3.50
2023-05-05T04:29:55.891Z,3.87
2023-05-05T04:35:00.791Z,3.50
2023-05-05T04:40:06.978Z,3.83
2023-05-05T04:45:15.482Z,3.90
2023-05-05T04:50:19.856Z,3.63
2023-05-05T04:55:25.338Z,3.53
2023-05-05T05:00:28.798Z,3.87
2023-05-05T05:05:32.302Z,3.23
2023-05-05T05:10:38.917Z,3.13
2023-05-05T05:15:42.922Z,3.10
2023-05-05T05:20:46.503Z,3.70
2023-05-05T05:25:52.216Z,3.63
2023-05-05T05:30:58.401Z,3.50
2023-05-05T05:36:26.931Z,3.17
2023-05-05T05:41:33.116Z,2.87
2023-05-05T05:46:36.804Z,3.37
2023-05-05T05:51:40.645Z,3.17
2023-05-05T05:56:45.317Z,3.33
2023-05-05T06:01:49.057Z,3.20
2023-05-05T06:06:52.668Z,3.17
2023-05-05T06:11:57.833Z,3.77
2023-05-05T06:17:01.207Z,3.23
2023-05-05T06:22:06.963Z,3.13
2023-05-05T06:27:12.993Z,3.17
2023-05-05T06:32:16.527Z,3.23
2023-05-05T06:37:20.126Z,2.73
2023-05-05T06:42:24.870Z,3.00
2023-05-05T06:47:47.076Z,2.93
2023-05-05T06:52:50.653Z,3.08
2023-05-05T06:57:54.291Z,3.30
2023-05-05T07:02:59.241Z,2.90
2023-05-05T07:08:02.781Z,3.00
2023-05-05T07:13:07.873Z,3.00
2023-05-05T07:18:12.961Z,2.88
2023-05-05T07:23:18.366Z,2.70
2023-05-05T07:28:22.738Z,3.00
2023-05-05T07:33:27.773Z,3.22
2023-05-05T07:38:31.328Z,3.05
2023-05-05T07:43:34.885Z,2.78
2023-05-05T07:48:41.563Z,2.53
2023-05-05T07:53:45.212Z,2.88
2023-05-05T07:58:50.430Z,3.03
2023-05-05T08:03:55.856Z,2.67
2023-05-05T08:09:01.091Z,3.03
2023-05-05T08:14:04.787Z,3.67
2023-05-05T08:19:17.862Z,2.90
2023-05-05T08:24:31.695Z,3.40
2023-05-05T08:29:35.066Z,3.50
2023-05-05T08:34:40.396Z,3.53
2023-05-05T08:39:43.742Z,3.77
2023-05-05T08:44:47.226Z,3.70
2023-05-05T08:49:55.646Z,3.37
2023-05-05T08:55:03.618Z,3.30
2023-05-05T09:00:11.699Z,3.73
2023-05-05T09:05:17.328Z,3.67
2023-05-05T09:10:20.866Z,3.53
2023-05-05T09:15:28.900Z,3.20
2023-05-05T09:20:36.473Z,3.37
2023-05-05T09:25:40.203Z,2.67
2023-05-05T09:30:44.837Z,2.90
2023-05-05T09:35:54.887Z,2.80
2023-05-05T09:40:58.414Z,2.87
2023-05-05T09:46:08.996Z,3.07
2023-05-05T09:51:14.297Z,3.03
2023-05-05T09:56:17.739Z,3.00
2023-05-05T10:01:24.877Z,3.17
2023-05-05T10:06:42.803Z,2.97
2023-05-05T10:11:47.751Z,2.93
2023-05-05T10:16:52.453Z,3.50
2023-05-05T10:22:04.707Z,3.77
2023-05-05T10:27:11.508Z,4.20
2023-05-05T10:32:47.046Z,3.97
2023-05-05T10:37:43.930Z,4.60
2023-05-05T10:42:48.392Z,4.30
2023-05-05T10:47:52.913Z,4.43
2023-05-05T10:53:00.676Z,4.90
2023-05-05T10:58:04.257Z,5.20
2023-05-05T11:03:21.220Z,4.77
2023-05-05T11:08:29.648Z,4.70
2023-05-05T11:13:33.218Z,4.73
2023-05-05T11:18:37.967Z,4.67
2023-05-05T11:23:44.161Z,5.47
2023-05-05T11:29:11.767Z,4.70
2023-05-05T11:34:31.347Z,4.90
2023-05-05T11:39:42.855Z,5.37
2023-05-05T11:44:46.757Z,4.57
2023-05-05T11:49:51.081Z,4.47
2023-05-05T11:55:01.885Z,4.67
2023-05-05T12:00:07.754Z,4.40
2023-05-05T12:05:11.990Z,3.77
2023-05-05T12:10:23.608Z,3.50
2023-05-05T12:15:30.952Z,3.10
2023-05-05T12:20:37.082Z,3.20
2023-05-05T12:25:43.347Z,3.20
2023-05-05T12:30:56.906Z,3.70
2023-05-05T12:36:00.913Z,2.70
2023-05-05T12:41:06.366Z,2.83
2023-05-05T12:46:40.170Z,3.10
2023-05-05T12:51:54.143Z,3.00
2023-05-05T12:57:00.508Z,2.92
2023-05-05T13:02:04.392Z,2.47
2023-05-05T13:07:12.366Z,3.13
2023-05-05T13:12:18.548Z,2.90
2023-05-05T13:17:29.483Z,2.13
2023-05-05T13:22:36.513Z,2.10
2023-05-05T13:27:46.577Z,2.67
2023-05-05T13:32:50.504Z,2.03
2023-05-05T13:37:55.898Z,2.35
2023-05-05T13:43:01.538Z,1.70
2023-05-05T13:48:05.905Z,2.00
2023-05-05T13:53:12.077Z,1.90
2023-05-05T13:58:20.061Z,1.90
2023-05-05T14:03:28.847Z,2.10
2023-05-05T14:08:35.505Z,1.83
2023-05-05T14:13:44.555Z,1.98
2023-05-05T14:18:47.896Z,1.92
2023-05-05T14:23:51.120Z,1.90
2023-05-05T14:29:01.240Z,1.95
2023-05-05T14:34:06.350Z,2.40
2023-05-05T14:39:14.403Z,2.25
2023-05-05T14:44:20.701Z,2.40
2023-05-05T14:49:24.580Z,2.13
2023-05-05T14:54:29.013Z,2.33
2023-05-05T14:59:34.210Z,2.50
2023-05-05T15:04:37.898Z,2.63
2023-05-05T15:09:42.104Z,2.70
2023-05-05T15:14:47.540Z,2.57
2023-05-05T15:19:51.704Z,2.20
2023-05-05T15:24:55.269Z,2.27
2023-05-05T15:30:00.488Z,2.37
2023-05-05T15:35:03.811Z,2.50
2023-05-05T15:40:08.009Z,2.63
2023-05-05T15:45:13.294Z,2.30
2023-05-05T15:50:17.030Z,2.30
2023-05-05T15:55:20.542Z,2.00
2023-05-05T16:00:25.930Z,1.93
2023-05-05T16:05:30.670Z,2.30
2023-05-05T16:10:34.059Z,2.47
2023-05-05T16:15:39.301Z,2.07
2023-05-05T16:20:42.759Z,2.63
2023-05-05T16:25:46.197Z,2.10
2023-05-05T16:30:51.370Z,2.60
2023-05-05T16:35:54.909Z,2.90
2023-05-05T16:40:58.409Z,2.97
2023-05-05T16:46:03.845Z,2.40
2023-05-05T16:51:07.354Z,2.60
2023-05-05T16:56:12.533Z,2.50
2023-05-05T17:01:17.800Z,1.93
2023-05-05T17:06:21.566Z,1.80
2023-05-05T17:11:25.569Z,2.20
2023-05-05T17:16:31.352Z,2.57
2023-05-05T17:21:34.918Z,2.73
2023-05-05T17:26:39.087Z,2.70
2023-05-05T17:31:44.073Z,3.47
2023-05-05T17:36:49.034Z,3.57
2023-05-05T17:41:53.001Z,3.73
2023-05-05T17:46:58.182Z,3.90
2023-05-05T17:52:05.691Z,2.80
2023-05-05T17:57:09.288Z,2.93
2023-05-05T18:02:14.201Z,3.07
2023-05-05T18:07:17.553Z,3.30
2023-05-05T18:12:21.562Z,2.90
2023-05-05T18:17:26.872Z,3.13
2023-05-05T18:22:30.890Z,3.40
2023-05-05T18:27:36.346Z,3.00
2023-05-05T18:32:41.346Z,2.80
2023-05-05T18:37:45.008Z,2.93
2023-05-05T18:42:48.872Z,3.87
2023-05-05T18:47:54.020Z,3.23
2023-05-05T18:52:57.657Z,4.50
2023-05-05T18:58:00.966Z,3.30
2023-05-05T19:03:07.033Z,3.60
2023-05-05T19:08:10.581Z,3.33
2023-05-05T19:13:14.479Z,2.77
2023-05-05T19:18:20.008Z,2.60
2023-05-05T19:23:23.576Z,2.63
2023-05-05T19:28:27.393Z,3.93
2023-05-05T19:33:32.410Z,3.07
2023-05-05T19:38:39.719Z,3.67
2023-05-05T19:43:43.344Z,5.30
2023-05-05T19:48:50.245Z,3.60
2023-05-05T19:53:53.572Z,3.00
2023-05-05T19:58:57.797Z,2.20
2023-05-05T20:04:03.755Z,2.17
2023-05-05T20:09:07.435Z,2.63
2023-05-05T20:14:11.044Z,2.70
2023-05-05T20:19:16.170Z,2.60
2023-05-05T20:24:19.762Z,2.67
2023-05-05T20:29:23.196Z,3.13
2023-05-05T20:34:28.839Z,3.73
2023-05-05T20:39:33.320Z,2.80
2023-05-05T20:44:36.827Z,2.67
2023-05-05T20:49:41.563Z,2.27
2023-05-05T20:54:45.234Z,2.27
2023-05-05T20:59:49.087Z,3.13
2023-05-05T21:04:54.368Z,3.33
2023-05-05T21:09:57.850Z,3.60
2023-05-05T21:15:01.642Z,3.77
2023-05-05T21:20:08.251Z,4.33
2023-05-05T21:25:12.788Z,5.67
2023-05-05T21:30:17.154Z,6.60
2023-05-05T21:35:23.035Z,6.43
2023-05-05T21:40:26.413Z,4.97
2023-05-05T21:45:30.175Z,5.67
2023-05-05T21:50:37.693Z,4.93
2023-05-05T21:55:41.125Z,4.77
2023-05-05T22:00:45.114Z,4.97
2023-05-05T22:05:50.312Z,4.37
2023-05-05T22:10:54.029Z,4.17
2023-05-05T22:15:57.832Z,4.07
2023-05-05T22:21:02.809Z,4.23
2023-05-05T22:26:06.388Z,4.00
2023-05-05T22:31:10.005Z,3.90
2023-05-05T22:36:15.186Z,3.30
2023-05-05T22:41:18.701Z,2.97
2023-05-05T22:46:22.318Z,3.10
2023-05-05T22:51:28.186Z,3.73
2023-05-05T22:56:31.869Z,6.30
2023-05-05T23:01:35.461Z,6.20
2023-05-05T23:06:42.025Z,5.47
2023-05-05T23:11:45.721Z,5.30
2023-05-05T23:16:49.618Z,5.83
2023-05-05T23:21:54.758Z,6.90
2023-05-05T23:27:00.156Z,6.27
2023-05-05T23:32:03.660Z,6.70
2023-05-05T23:37:08.747Z,7.43
2023-05-05T23:42:12.482Z,7.50
2023-05-05T23:47:16.120Z,5.87
2023-05-05T23:52:21.201Z,5.10
2023-05-05T23:57:24.724Z,5.13
